sensor_id;sensor_type;location;lat;lon;timestamp;temperature;humidity
14727;DHT22;7454;51.256;8.176;2023-12-14T00:00:20;6.40;81.20
14727;DHT22;7454;51.256;8.176;2023-12-14T00:02:52;6.40;81.10
14727;DHT22;7454;51.256;8.176;2023-12-14T00:05:24;6.40;81.20
14727;DHT22;7454;51.256;8.176;2023-12-14T00:07:56;6.40;81.40
14727;DHT22;7454;51.256;8.176;2023-12-14T00:10:28;6.50;81.60
14727;DHT22;7454;51.256;8.176;2023-12-14T00:13:00;6.40;81.60
14727;DHT22;7454;51.256;8.176;2023-12-14T00:15:32;6.50;81.50
14727;DHT22;7454;51.256;8.176;2023-12-14T00:18:04;6.50;81.50
14727;DHT22;7454;51.256;8.176;2023-12-14T00:20:37;6.50;81.20
14727;DHT22;7454;51.256;8.176;2023-12-14T00:23:03;6.50;81.20
14727;DHT22;7454;51.256;8.176;2023-12-14T00:25:35;6.50;81.20
14727;DHT22;7454;51.256;8.176;2023-12-14T00:28:07;6.50;81.40
14727;DHT22;7454;51.256;8.176;2023-12-14T00:30:39;6.40;81.40
14727;DHT22;7454;51.256;8.176;2023-12-14T00:33:05;6.60;81.40
14727;DHT22;7454;51.256;8.176;2023-12-14T00:35:44;6.50;81.40
14727;DHT22;7454;51.256;8.176;2023-12-14T00:38:23;6.50;81.40
14727;DHT22;7454;51.256;8.176;2023-12-14T00:40:55;6.50;81.40
14727;DHT22;7454;51.256;8.176;2023-12-14T00:43:37;6.50;81.20
14727;DHT22;7454;51.256;8.176;2023-12-14T00:46:14;6.40;81.20
14727;DHT22;7454;51.256;8.176;2023-12-14T00:48:46;6.50;81.50
14727;DHT22;7454;51.256;8.176;2023-12-14T00:51:12;6.40;81.60
14727;DHT22;7454;51.256;8.176;2023-12-14T00:53:45;6.60;81.60
14727;DHT22;7454;51.256;8.176;2023-12-14T00:56:16;6.50;81.40
14727;DHT22;7454;51.256;8.176;2023-12-14T00:58:48;6.40;81.40
14727;DHT22;7454;51.256;8.176;2023-12-14T01:01:20;6.60;81.40
14727;DHT22;7454;51.256;8.176;2023-12-14T01:03:52;6.50;81.40
14727;DHT22;7454;51.256;8.176;2023-12-14T01:06:25;6.50;81.40
14727;DHT22;7454;51.256;8.176;2023-12-14T01:08:56;6.50;81.30
14727;DHT22;7454;51.256;8.176;2023-12-14T01:11:28;6.50;81.40
14727;DHT22;7454;51.256;8.176;2023-12-14T01:14:00;6.60;81.50
14727;DHT22;7454;51.256;8.176;2023-12-14T01:16:32;6.50;81.50
14727;DHT22;7454;51.256;8.176;2023-12-14T01:19:04;6.50;81.30
14727;DHT22;7454;51.256;8.176;2023-12-14T01:21:39;6.50;81.50
14727;DHT22;7454;51.256;8.176;2023-12-14T01:24:12;6.60;81.70
14727;DHT22;7454;51.256;8.176;2023-12-14T01:26:44;6.50;81.30
14727;DHT22;7454;51.256;8.176;2023-12-14T01:29:09;6.50;81.40
14727;DHT22;7454;51.256;8.176;2023-12-14T01:31:42;6.60;81.40
14727;DHT22;7454;51.256;8.176;2023-12-14T01:34:15;6.60;81.40
14727;DHT22;7454;51.256;8.176;2023-12-14T01:36:47;6.50;81.30
14727;DHT22;7454;51.256;8.176;2023-12-14T01:39:33;6.50;81.40
14727;DHT22;7454;51.256;8.176;2023-12-14T01:42:05;6.60;81.50
14727;DHT22;7454;51.256;8.176;2023-12-14T01:44:38;6.50;81.40
14727;DHT22;7454;51.256;8.176;2023-12-14T01:47:09;6.50;81.70
14727;DHT22;7454;51.256;8.176;2023-12-14T01:49:35;6.50;81.80
14727;DHT22;7454;51.256;8.176;2023-12-14T01:52:07;6.50;81.80
14727;DHT22;7454;51.256;8.176;2023-12-14T01:54:39;6.60;81.80
14727;DHT22;7454;51.256;8.176;2023-12-14T01:57:11;6.60;81.70
14727;DHT22;7454;51.256;8.176;2023-12-14T01:59:44;6.60;81.60
14727;DHT22;7454;51.256;8.176;2023-12-14T02:02:16;6.60;81.60
14727;DHT22;7454;51.256;8.176;2023-12-14T02:04:48;6.50;81.60
14727;DHT22;7454;51.256;8.176;2023-12-14T02:07:20;6.50;81.60
14727;DHT22;7454;51.256;8.176;2023-12-14T02:09:52;6.60;81.60
14727;DHT22;7454;51.256;8.176;2023-12-14T02:12:24;6.60;81.70
14727;DHT22;7454;51.256;8.176;2023-12-14T02:14:56;6.60;81.90
14727;DHT22;7454;51.256;8.176;2023-12-14T02:17:28;6.60;81.60
14727;DHT22;7454;51.256;8.176;2023-12-14T02:20:01;6.50;81.80
14727;DHT22;7454;51.256;8.176;2023-12-14T02:22:47;6.50;81.30
14727;DHT22;7454;51.256;8.176;2023-12-14T02:25:22;6.50;81.80
14727;DHT22;7454;51.256;8.176;2023-12-14T02:27:54;6.70;82.10
14727;DHT22;7454;51.256;8.176;2023-12-14T02:30:26;6.50;82.00
14727;DHT22;7454;51.256;8.176;2023-12-14T02:32:58;6.60;82.10
14727;DHT22;7454;51.256;8.176;2023-12-14T02:35:30;6.50;81.80
14727;DHT22;7454;51.256;8.176;2023-12-14T02:38:02;6.50;82.10
14727;DHT22;7454;51.256;8.176;2023-12-14T02:40:35;6.40;82.30
14727;DHT22;7454;51.256;8.176;2023-12-14T02:43:13;6.60;82.30
14727;DHT22;7454;51.256;8.176;2023-12-14T02:45:46;6.60;82.20
14727;DHT22;7454;51.256;8.176;2023-12-14T02:48:18;6.50;82.20
14727;DHT22;7454;51.256;8.176;2023-12-14T02:50:50;6.60;82.00
14727;DHT22;7454;51.256;8.176;2023-12-14T02:53:21;6.60;81.70
14727;DHT22;7454;51.256;8.176;2023-12-14T02:55:54;6.50;82.10
14727;DHT22;7454;51.256;8.176;2023-12-14T02:58:27;6.50;81.90
14727;DHT22;7454;51.256;8.176;2023-12-14T03:00:58;6.50;81.70
14727;DHT22;7454;51.256;8.176;2023-12-14T03:03:31;6.70;81.50
14727;DHT22;7454;51.256;8.176;2023-12-14T03:06:03;6.50;81.80
14727;DHT22;7454;51.256;8.176;2023-12-14T03:08:29;6.50;81.60
14727;DHT22;7454;51.256;8.176;2023-12-14T03:11:01;6.60;81.60
14727;DHT22;7454;51.256;8.176;2023-12-14T03:13:33;6.50;81.70
14727;DHT22;7454;51.256;8.176;2023-12-14T03:16:05;6.40;81.70
14727;DHT22;7454;51.256;8.176;2023-12-14T03:18:38;6.40;81.60
14727;DHT22;7454;51.256;8.176;2023-12-14T03:21:19;6.40;81.70
14727;DHT22;7454;51.256;8.176;2023-12-14T03:23:54;6.40;81.70
14727;DHT22;7454;51.256;8.176;2023-12-14T03:26:27;6.40;82.00
14727;DHT22;7454;51.256;8.176;2023-12-14T03:28:59;6.30;81.70
14727;DHT22;7454;51.256;8.176;2023-12-14T03:31:31;6.20;81.50
14727;DHT22;7454;51.256;8.176;2023-12-14T03:34:04;6.30;81.80
14727;DHT22;7454;51.256;8.176;2023-12-14T03:36:37;6.30;81.70
14727;DHT22;7454;51.256;8.176;2023-12-14T03:39:15;6.30;81.80
14727;DHT22;7454;51.256;8.176;2023-12-14T03:41:50;6.30;81.50
14727;DHT22;7454;51.256;8.176;2023-12-14T03:44:23;6.20;81.20
14727;DHT22;7454;51.256;8.176;2023-12-14T03:46:56;6.20;81.60
14727;DHT22;7454;51.256;8.176;2023-12-14T03:49:30;6.20;81.20
14727;DHT22;7454;51.256;8.176;2023-12-14T03:51:55;6.40;81.40
14727;DHT22;7454;51.256;8.176;2023-12-14T03:54:29;6.20;81.50
14727;DHT22;7454;51.256;8.176;2023-12-14T03:57:01;6.20;81.30
14727;DHT22;7454;51.256;8.176;2023-12-14T03:59:33;6.20;81.20
14727;DHT22;7454;51.256;8.176;2023-12-14T04:02:07;6.20;81.30
14727;DHT22;7454;51.256;8.176;2023-12-14T04:04:40;6.10;81.20
14727;DHT22;7454;51.256;8.176;2023-12-14T04:07:05;6.20;81.60
14727;DHT22;7454;51.256;8.176;2023-12-14T04:09:37;6.20;81.30
14727;DHT22;7454;51.256;8.176;2023-12-14T04:12:10;6.10;80.90
14727;DHT22;7454;51.256;8.176;2023-12-14T04:14:42;6.20;81.30
14727;DHT22;7454;51.256;8.176;2023-12-14T04:17:14;6.10;81.30
14727;DHT22;7454;51.256;8.176;2023-12-14T04:19:53;6.10;81.30
14727;DHT22;7454;51.256;8.176;2023-12-14T04:22:25;6.10;81.20
14727;DHT22;7454;51.256;8.176;2023-12-14T04:24:58;6.10;81.40
14727;DHT22;7454;51.256;8.176;2023-12-14T04:27:30;6.10;81.40
14727;DHT22;7454;51.256;8.176;2023-12-14T04:30:02;6.10;81.20
14727;DHT22;7454;51.256;8.176;2023-12-14T04:32:36;6.10;81.10
14727;DHT22;7454;51.256;8.176;2023-12-14T04:35:09;6.30;81.20
14727;DHT22;7454;51.256;8.176;2023-12-14T04:37:47;6.10;81.00
14727;DHT22;7454;51.256;8.176;2023-12-14T04:40:20;6.10;80.50
14727;DHT22;7454;51.256;8.176;2023-12-14T04:42:45;6.00;80.60
14727;DHT22;7454;51.256;8.176;2023-12-14T04:45:18;6.10;80.70
14727;DHT22;7454;51.256;8.176;2023-12-14T04:47:51;5.90;80.60
14727;DHT22;7454;51.256;8.176;2023-12-14T04:50:23;5.90;80.80
14727;DHT22;7454;51.256;8.176;2023-12-14T04:52:55;5.80;80.60
14727;DHT22;7454;51.256;8.176;2023-12-14T04:55:27;5.80;80.90
14727;DHT22;7454;51.256;8.176;2023-12-14T04:57:59;5.70;80.90
14727;DHT22;7454;51.256;8.176;2023-12-14T05:00:31;5.80;81.10
14727;DHT22;7454;51.256;8.176;2023-12-14T05:03:05;5.70;80.90
14727;DHT22;7454;51.256;8.176;2023-12-14T05:05:38;5.70;81.00
14727;DHT22;7454;51.256;8.176;2023-12-14T05:08:10;5.70;81.10
14727;DHT22;7454;51.256;8.176;2023-12-14T05:10:43;5.70;81.10
14727;DHT22;7454;51.256;8.176;2023-12-14T05:13:15;5.70;80.90
14727;DHT22;7454;51.256;8.176;2023-12-14T05:15:47;5.70;81.10
14727;DHT22;7454;51.256;8.176;2023-12-14T05:18:21;5.70;81.10
14727;DHT22;7454;51.256;8.176;2023-12-14T05:20:55;5.70;81.20
14727;DHT22;7454;51.256;8.176;2023-12-14T05:23:37;5.70;81.40
14727;DHT22;7454;51.256;8.176;2023-12-14T05:26:10;5.80;81.20
14727;DHT22;7454;51.256;8.176;2023-12-14T05:28:42;5.70;81.40
14727;DHT22;7454;51.256;8.176;2023-12-14T05:31:14;5.90;81.20
14727;DHT22;7454;51.256;8.176;2023-12-14T05:33:46;5.70;80.60
14727;DHT22;7454;51.256;8.176;2023-12-14T05:36:18;5.70;80.80
14727;DHT22;7454;51.256;8.176;2023-12-14T05:38:51;5.70;81.00
14727;DHT22;7454;51.256;8.176;2023-12-14T05:41:30;5.70;81.10
14727;DHT22;7454;51.256;8.176;2023-12-14T05:44:02;5.70;80.90
14727;DHT22;7454;51.256;8.176;2023-12-14T05:46:34;5.60;81.00
14727;DHT22;7454;51.256;8.176;2023-12-14T05:49:06;5.70;81.20
14727;DHT22;7454;51.256;8.176;2023-12-14T05:51:38;5.70;81.10
14727;DHT22;7454;51.256;8.176;2023-12-14T05:54:11;5.70;81.10
14727;DHT22;7454;51.256;8.176;2023-12-14T05:56:43;5.70;81.10
14727;DHT22;7454;51.256;8.176;2023-12-14T05:59:21;5.70;80.70
14727;DHT22;7454;51.256;8.176;2023-12-14T06:01:57;5.70;80.90
14727;DHT22;7454;51.256;8.176;2023-12-14T06:04:30;5.70;81.10
14727;DHT22;7454;51.256;8.176;2023-12-14T06:07:02;5.70;80.90
14727;DHT22;7454;51.256;8.176;2023-12-14T06:09:27;5.70;81.10
14727;DHT22;7454;51.256;8.176;2023-12-14T06:12:07;5.70;81.00
14727;DHT22;7454;51.256;8.176;2023-12-14T06:14:39;5.70;80.90
14727;DHT22;7454;51.256;8.176;2023-12-14T06:17:11;5.80;80.90
14727;DHT22;7454;51.256;8.176;2023-12-14T06:19:43;5.80;81.10
14727;DHT22;7454;51.256;8.176;2023-12-14T06:22:15;5.80;81.00
14727;DHT22;7454;51.256;8.176;2023-12-14T06:24:47;5.70;80.90
14727;DHT22;7454;51.256;8.176;2023-12-14T06:27:19;5.70;80.80
14727;DHT22;7454;51.256;8.176;2023-12-14T06:29:51;5.70;80.80
14727;DHT22;7454;51.256;8.176;2023-12-14T06:32:23;5.90;80.90
14727;DHT22;7454;51.256;8.176;2023-12-14T06:35:02;5.70;81.00
14727;DHT22;7454;51.256;8.176;2023-12-14T06:37:41;5.70;81.00
14727;DHT22;7454;51.256;8.176;2023-12-14T06:40:14;5.70;80.90
14727;DHT22;7454;51.256;8.176;2023-12-14T06:42:46;5.70;80.90
14727;DHT22;7454;51.256;8.176;2023-12-14T06:45:18;5.70;81.00
14727;DHT22;7454;51.256;8.176;2023-12-14T06:47:50;5.70;80.70
14727;DHT22;7454;51.256;8.176;2023-12-14T06:50:22;5.70;80.80
14727;DHT22;7454;51.256;8.176;2023-12-14T06:52:59;5.70;80.80
14727;DHT22;7454;51.256;8.176;2023-12-14T06:55:34;5.70;80.80
14727;DHT22;7454;51.256;8.176;2023-12-14T06:58:06;5.70;80.70
14727;DHT22;7454;51.256;8.176;2023-12-14T07:00:43;5.60;80.70
14727;DHT22;7454;51.256;8.176;2023-12-14T07:03:15;5.70;80.70
14727;DHT22;7454;51.256;8.176;2023-12-14T07:05:41;5.70;80.80
14727;DHT22;7454;51.256;8.176;2023-12-14T07:08:13;5.60;80.60
14727;DHT22;7454;51.256;8.176;2023-12-14T07:10:45;5.60;80.60
14727;DHT22;7454;51.256;8.176;2023-12-14T07:13:17;5.50;80.60
14727;DHT22;7454;51.256;8.176;2023-12-14T07:15:49;5.50;80.70
14727;DHT22;7454;51.256;8.176;2023-12-14T07:18:21;5.50;80.80
14727;DHT22;7454;51.256;8.176;2023-12-14T07:20:53;5.50;80.40
14727;DHT22;7454;51.256;8.176;2023-12-14T07:23:25;5.40;80.70
14727;DHT22;7454;51.256;8.176;2023-12-14T07:25:59;5.50;81.00
14727;DHT22;7454;51.256;8.176;2023-12-14T07:28:31;5.40;80.80
14727;DHT22;7454;51.256;8.176;2023-12-14T07:31:03;5.40;80.70
14727;DHT22;7454;51.256;8.176;2023-12-14T07:33:35;5.40;80.60
14727;DHT22;7454;51.256;8.176;2023-12-14T07:36:07;5.60;80.70
14727;DHT22;7454;51.256;8.176;2023-12-14T07:38:40;5.40;80.70
14727;DHT22;7454;51.256;8.176;2023-12-14T07:41:19;5.40;80.70
14727;DHT22;7454;51.256;8.176;2023-12-14T07:43:51;5.50;80.70
14727;DHT22;7454;51.256;8.176;2023-12-14T07:46:23;5.50;80.70
14727;DHT22;7454;51.256;8.176;2023-12-14T07:49:01;5.40;80.60
14727;DHT22;7454;51.256;8.176;2023-12-14T07:51:33;5.40;80.60
14727;DHT22;7454;51.256;8.176;2023-12-14T07:54:05;5.50;80.60
14727;DHT22;7454;51.256;8.176;2023-12-14T07:56:37;5.30;80.70
14727;DHT22;7454;51.256;8.176;2023-12-14T07:59:09;5.40;80.30
14727;DHT22;7454;51.256;8.176;2023-12-14T08:01:49;5.40;80.70
14727;DHT22;7454;51.256;8.176;2023-12-14T08:04:22;5.30;80.40
14727;DHT22;7454;51.256;8.176;2023-12-14T08:06:55;5.40;80.60
14727;DHT22;7454;51.256;8.176;2023-12-14T08:09:28;5.40;80.50
14727;DHT22;7454;51.256;8.176;2023-12-14T08:12:00;5.40;80.50
14727;DHT22;7454;51.256;8.176;2023-12-14T08:14:35;5.30;80.50
14727;DHT22;7454;51.256;8.176;2023-12-14T08:17:09;5.30;80.50
14727;DHT22;7454;51.256;8.176;2023-12-14T08:19:42;5.30;80.60
14727;DHT22;7454;51.256;8.176;2023-12-14T08:22:15;5.30;80.50
14727;DHT22;7454;51.256;8.176;2023-12-14T08:24:47;5.20;80.60
14727;DHT22;7454;51.256;8.176;2023-12-14T08:27:20;5.20;80.60
14727;DHT22;7454;51.256;8.176;2023-12-14T08:29:52;5.40;80.70
14727;DHT22;7454;51.256;8.176;2023-12-14T08:32:24;5.20;80.40
14727;DHT22;7454;51.256;8.176;2023-12-14T08:34:56;5.20;80.60
14727;DHT22;7454;51.256;8.176;2023-12-14T08:37:35;5.20;80.50
14727;DHT22;7454;51.256;8.176;2023-12-14T08:40:08;5.20;80.80
14727;DHT22;7454;51.256;8.176;2023-12-14T08:42:48;5.20;80.60
14727;DHT22;7454;51.256;8.176;2023-12-14T08:45:20;5.20;80.60
14727;DHT22;7454;51.256;8.176;2023-12-14T08:47:52;5.20;80.70
14727;DHT22;7454;51.256;8.176;2023-12-14T08:50:24;5.30;80.70
14727;DHT22;7454;51.256;8.176;2023-12-14T08:52:58;5.30;80.70
14727;DHT22;7454;51.256;8.176;2023-12-14T08:55:31;5.30;80.70
14727;DHT22;7454;51.256;8.176;2023-12-14T08:58:04;5.30;80.70
14727;DHT22;7454;51.256;8.176;2023-12-14T09:00:30;5.30;80.60
14727;DHT22;7454;51.256;8.176;2023-12-14T09:03:02;5.30;80.80
14727;DHT22;7454;51.256;8.176;2023-12-14T09:05:34;5.30;80.70
14727;DHT22;7454;51.256;8.176;2023-12-14T09:08:07;5.30;80.60
14727;DHT22;7454;51.256;8.176;2023-12-14T09:10:39;5.30;80.60
14727;DHT22;7454;51.256;8.176;2023-12-14T09:13:05;5.20;80.50
14727;DHT22;7454;51.256;8.176;2023-12-14T09:15:37;5.30;80.60
14727;DHT22;7454;51.256;8.176;2023-12-14T09:18:11;5.20;80.30
14727;DHT22;7454;51.256;8.176;2023-12-14T09:20:44;5.30;80.50
14727;DHT22;7454;51.256;8.176;2023-12-14T09:23:16;5.20;80.60
14727;DHT22;7454;51.256;8.176;2023-12-14T09:25:49;5.20;80.50
14727;DHT22;7454;51.256;8.176;2023-12-14T09:28:22;5.20;80.60
14727;DHT22;7454;51.256;8.176;2023-12-14T09:30:54;5.20;80.70
14727;DHT22;7454;51.256;8.176;2023-12-14T09:33:32;5.10;80.20
14727;DHT22;7454;51.256;8.176;2023-12-14T09:36:05;5.10;80.50
14727;DHT22;7454;51.256;8.176;2023-12-14T09:38:38;5.10;80.50
14727;DHT22;7454;51.256;8.176;2023-12-14T09:41:24;5.10;80.50
14727;DHT22;7454;51.256;8.176;2023-12-14T09:43:57;5.10;80.30
14727;DHT22;7454;51.256;8.176;2023-12-14T09:46:31;5.10;80.50
14727;DHT22;7454;51.256;8.176;2023-12-14T09:49:09;5.10;80.50
14727;DHT22;7454;51.256;8.176;2023-12-14T09:51:41;5.10;80.60
14727;DHT22;7454;51.256;8.176;2023-12-14T09:54:13;5.10;80.80
14727;DHT22;7454;51.256;8.176;2023-12-14T09:56:45;5.20;80.60
14727;DHT22;7454;51.256;8.176;2023-12-14T09:59:19;5.20;80.60
14727;DHT22;7454;51.256;8.176;2023-12-14T10:01:52;5.20;80.70
14727;DHT22;7454;51.256;8.176;2023-12-14T10:04:24;5.20;80.20
14727;DHT22;7454;51.256;8.176;2023-12-14T10:06:56;5.10;80.30
14727;DHT22;7454;51.256;8.176;2023-12-14T10:09:28;5.20;80.30
14727;DHT22;7454;51.256;8.176;2023-12-14T10:12:04;5.10;80.60
14727;DHT22;7454;51.256;8.176;2023-12-14T10:14:38;5.20;80.40
14727;DHT22;7454;51.256;8.176;2023-12-14T10:17:22;5.30;80.60
14727;DHT22;7454;51.256;8.176;2023-12-14T10:20:04;5.20;80.60
14727;DHT22;7454;51.256;8.176;2023-12-14T10:22:37;5.20;80.40
14727;DHT22;7454;51.256;8.176;2023-12-14T10:25:09;5.30;80.50
14727;DHT22;7454;51.256;8.176;2023-12-14T10:27:41;5.30;80.50
14727;DHT22;7454;51.256;8.176;2023-12-14T10:30:17;5.30;80.60
14727;DHT22;7454;51.256;8.176;2023-12-14T10:32:49;5.30;80.50
14727;DHT22;7454;51.256;8.176;2023-12-14T10:35:22;5.30;80.50
14727;DHT22;7454;51.256;8.176;2023-12-14T10:37:54;5.30;80.30
14727;DHT22;7454;51.256;8.176;2023-12-14T10:40:33;5.40;80.40
14727;DHT22;7454;51.256;8.176;2023-12-14T10:43:06;5.40;80.30
14727;DHT22;7454;51.256;8.176;2023-12-14T10:45:38;5.30;80.20
14727;DHT22;7454;51.256;8.176;2023-12-14T10:48:11;5.30;80.00
14727;DHT22;7454;51.256;8.176;2023-12-14T10:50:45;5.30;80.20
14727;DHT22;7454;51.256;8.176;2023-12-14T10:53:17;5.30;80.20
14727;DHT22;7454;51.256;8.176;2023-12-14T10:55:50;5.30;80.30
14727;DHT22;7454;51.256;8.176;2023-12-14T10:58:23;5.40;80.20
14727;DHT22;7454;51.256;8.176;2023-12-14T11:01:01;5.30;80.10
14727;DHT22;7454;51.256;8.176;2023-12-14T11:03:33;5.40;80.20
14727;DHT22;7454;51.256;8.176;2023-12-14T11:08:57;5.40;80.10
14727;DHT22;7454;51.256;8.176;2023-12-14T11:12:13;5.40;80.30
14727;DHT22;7454;51.256;8.176;2023-12-14T11:14:30;5.60;80.10
14727;DHT22;7454;51.256;8.176;2023-12-14T11:17:05;5.40;80.20
14727;DHT22;7454;51.256;8.176;2023-12-14T11:19:38;5.50;80.20
14727;DHT22;7454;51.256;8.176;2023-12-14T11:22:11;5.50;80.00
14727;DHT22;7454;51.256;8.176;2023-12-14T11:24:50;5.50;80.00
14727;DHT22;7454;51.256;8.176;2023-12-14T11:27:28;5.50;80.20
14727;DHT22;7454;51.256;8.176;2023-12-14T11:30:01;5.40;79.90
14727;DHT22;7454;51.256;8.176;2023-12-14T11:32:36;5.50;80.10
14727;DHT22;7454;51.256;8.176;2023-12-14T11:35:09;5.50;80.20
14727;DHT22;7454;51.256;8.176;2023-12-14T11:37:44;5.50;80.10
14727;DHT22;7454;51.256;8.176;2023-12-14T11:40:16;5.50;80.00
14727;DHT22;7454;51.256;8.176;2023-12-14T11:43:01;5.40;80.00
14727;DHT22;7454;51.256;8.176;2023-12-14T11:45:41;5.50;80.20
14727;DHT22;7454;51.256;8.176;2023-12-14T11:48:13;5.60;80.10
14727;DHT22;7454;51.256;8.176;2023-12-14T11:50:45;5.40;80.10
14727;DHT22;7454;51.256;8.176;2023-12-14T11:53:18;5.40;79.90
14727;DHT22;7454;51.256;8.176;2023-12-14T11:55:52;5.40;80.00
14727;DHT22;7454;51.256;8.176;2023-12-14T11:58:33;5.40;80.10
14727;DHT22;7454;51.256;8.176;2023-12-14T12:01:16;5.40;80.20
14727;DHT22;7454;51.256;8.176;2023-12-14T12:03:50;5.40;80.20
14727;DHT22;7454;51.256;8.176;2023-12-14T12:06:23;5.40;80.10
14727;DHT22;7454;51.256;8.176;2023-12-14T12:08:56;5.30;80.00
14727;DHT22;7454;51.256;8.176;2023-12-14T12:11:28;5.30;80.10
14727;DHT22;7454;51.256;8.176;2023-12-14T12:14:00;5.30;80.10
14727;DHT22;7454;51.256;8.176;2023-12-14T12:16:35;5.40;80.00
14727;DHT22;7454;51.256;8.176;2023-12-14T12:19:08;5.30;80.10
14727;DHT22;7454;51.256;8.176;2023-12-14T12:21:34;5.20;80.00
14727;DHT22;7454;51.256;8.176;2023-12-14T12:24:06;5.30;80.20
14727;DHT22;7454;51.256;8.176;2023-12-14T12:26:38;5.20;80.10
14727;DHT22;7454;51.256;8.176;2023-12-14T12:29:10;5.20;80.30
14727;DHT22;7454;51.256;8.176;2023-12-14T12:31:42;5.20;80.30
14727;DHT22;7454;51.256;8.176;2023-12-14T12:34:14;5.10;80.40
14727;DHT22;7454;51.256;8.176;2023-12-14T12:36:54;5.00;80.10
14727;DHT22;7454;51.256;8.176;2023-12-14T12:39:32;5.00;80.30
14727;DHT22;7454;51.256;8.176;2023-12-14T12:42:06;5.00;80.40
14727;DHT22;7454;51.256;8.176;2023-12-14T12:44:39;5.10;80.50
14727;DHT22;7454;51.256;8.176;2023-12-14T12:47:14;5.00;80.20
14727;DHT22;7454;51.256;8.176;2023-12-14T12:49:47;4.90;80.20
14727;DHT22;7454;51.256;8.176;2023-12-14T12:52:19;5.00;80.40
14727;DHT22;7454;51.256;8.176;2023-12-14T12:54:51;5.00;80.50
14727;DHT22;7454;51.256;8.176;2023-12-14T12:57:17;5.00;80.40
14727;DHT22;7454;51.256;8.176;2023-12-14T12:59:49;5.00;80.40
14727;DHT22;7454;51.256;8.176;2023-12-14T13:02:21;5.00;80.40
14727;DHT22;7454;51.256;8.176;2023-12-14T13:04:53;4.90;80.50
14727;DHT22;7454;51.256;8.176;2023-12-14T13:07:25;4.90;80.60
14727;DHT22;7454;51.256;8.176;2023-12-14T13:09:57;5.00;80.40
14727;DHT22;7454;51.256;8.176;2023-12-14T13:12:29;4.80;80.40
14727;DHT22;7454;51.256;8.176;2023-12-14T13:15:02;4.90;80.50
14727;DHT22;7454;51.256;8.176;2023-12-14T13:17:34;4.90;80.50
14727;DHT22;7454;51.256;8.176;2023-12-14T13:20:06;4.80;80.40
14727;DHT22;7454;51.256;8.176;2023-12-14T13:22:39;4.80;80.30
14727;DHT22;7454;51.256;8.176;2023-12-14T13:25:11;4.80;80.40
14727;DHT22;7454;51.256;8.176;2023-12-14T13:27:43;4.70;80.70
14727;DHT22;7454;51.256;8.176;2023-12-14T13:30:15;4.80;80.60
14727;DHT22;7454;51.256;8.176;2023-12-14T13:32:49;4.70;80.40
14727;DHT22;7454;51.256;8.176;2023-12-14T13:35:21;4.60;80.20
14727;DHT22;7454;51.256;8.176;2023-12-14T13:37:54;4.60;80.60
14727;DHT22;7454;51.256;8.176;2023-12-14T13:40:26;4.70;80.80
14727;DHT22;7454;51.256;8.176;2023-12-14T13:43:05;4.70;80.80
14727;DHT22;7454;51.256;8.176;2023-12-14T13:45:42;4.70;80.60
14727;DHT22;7454;51.256;8.176;2023-12-14T13:48:14;4.70;80.70
14727;DHT22;7454;51.256;8.176;2023-12-14T13:50:39;4.80;80.70
14727;DHT22;7454;51.256;8.176;2023-12-14T13:53:12;4.80;80.70
14727;DHT22;7454;51.256;8.176;2023-12-14T13:55:44;4.70;80.60
14727;DHT22;7454;51.256;8.176;2023-12-14T13:58:16;4.80;80.60
14727;DHT22;7454;51.256;8.176;2023-12-14T14:00:48;4.80;80.70
14727;DHT22;7454;51.256;8.176;2023-12-14T14:03:20;4.80;80.40
14727;DHT22;7454;51.256;8.176;2023-12-14T14:05:52;4.80;80.30
14727;DHT22;7454;51.256;8.176;2023-12-14T14:08:24;4.80;80.60
14727;DHT22;7454;51.256;8.176;2023-12-14T14:10:56;4.90;80.70
14727;DHT22;7454;51.256;8.176;2023-12-14T14:13:28;4.90;80.40
14727;DHT22;7454;51.256;8.176;2023-12-14T14:16:01;4.80;80.50
14727;DHT22;7454;51.256;8.176;2023-12-14T14:18:33;4.90;80.70
14727;DHT22;7454;51.256;8.176;2023-12-14T14:21:05;4.70;80.50
14727;DHT22;7454;51.256;8.176;2023-12-14T14:23:40;4.80;80.40
14727;DHT22;7454;51.256;8.176;2023-12-14T14:26:12;4.70;80.40
14727;DHT22;7454;51.256;8.176;2023-12-14T14:28:44;4.90;80.30
14727;DHT22;7454;51.256;8.176;2023-12-14T14:31:09;4.80;80.40
14727;DHT22;7454;51.256;8.176;2023-12-14T14:33:43;4.90;80.40
14727;DHT22;7454;51.256;8.176;2023-12-14T14:36:16;4.90;80.50
14727;DHT22;7454;51.256;8.176;2023-12-14T14:38:48;4.90;80.60
14727;DHT22;7454;51.256;8.176;2023-12-14T14:41:27;4.90;80.40
14727;DHT22;7454;51.256;8.176;2023-12-14T14:43:59;4.90;80.40
14727;DHT22;7454;51.256;8.176;2023-12-14T14:46:31;4.90;80.50
14727;DHT22;7454;51.256;8.176;2023-12-14T14:49:03;4.90;80.30
14727;DHT22;7454;51.256;8.176;2023-12-14T14:51:36;4.90;80.40
14727;DHT22;7454;51.256;8.176;2023-12-14T14:54:08;4.90;80.40
14727;DHT22;7454;51.256;8.176;2023-12-14T14:56:40;4.90;80.20
14727;DHT22;7454;51.256;8.176;2023-12-14T14:59:13;5.00;80.50
14727;DHT22;7454;51.256;8.176;2023-12-14T15:01:47;4.90;80.40
14727;DHT22;7454;51.256;8.176;2023-12-14T15:04:19;4.90;80.20
14727;DHT22;7454;51.256;8.176;2023-12-14T15:06:51;5.00;80.50
14727;DHT22;7454;51.256;8.176;2023-12-14T15:09:23;5.00;80.40
14727;DHT22;7454;51.256;8.176;2023-12-14T15:11:56;4.90;80.30
14727;DHT22;7454;51.256;8.176;2023-12-14T15:14:28;4.90;80.40
14727;DHT22;7454;51.256;8.176;2023-12-14T15:17:00;4.90;80.40
14727;DHT22;7454;51.256;8.176;2023-12-14T15:19:32;4.90;80.20
14727;DHT22;7454;51.256;8.176;2023-12-14T15:21:57;4.90;80.30
14727;DHT22;7454;51.256;8.176;2023-12-14T15:24:32;4.80;80.20
14727;DHT22;7454;51.256;8.176;2023-12-14T15:27:04;4.80;80.20
14727;DHT22;7454;51.256;8.176;2023-12-14T15:29:36;4.80;80.30
14727;DHT22;7454;51.256;8.176;2023-12-14T15:32:08;4.90;80.20
14727;DHT22;7454;51.256;8.176;2023-12-14T15:34:48;4.80;80.30
14727;DHT22;7454;51.256;8.176;2023-12-14T15:37:21;4.80;80.20
14727;DHT22;7454;51.256;8.176;2023-12-14T15:39:53;4.80;80.20
14727;DHT22;7454;51.256;8.176;2023-12-14T15:42:32;4.80;80.20
14727;DHT22;7454;51.256;8.176;2023-12-14T15:45:04;4.80;80.30
14727;DHT22;7454;51.256;8.176;2023-12-14T15:47:37;4.80;80.20
14727;DHT22;7454;51.256;8.176;2023-12-14T15:50:09;4.70;80.10
14727;DHT22;7454;51.256;8.176;2023-12-14T15:52:41;4.80;80.40
14727;DHT22;7454;51.256;8.176;2023-12-14T15:55:13;4.80;80.40
14727;DHT22;7454;51.256;8.176;2023-12-14T15:57:45;4.80;80.40
14727;DHT22;7454;51.256;8.176;2023-12-14T16:00:20;4.80;80.60
14727;DHT22;7454;51.256;8.176;2023-12-14T16:02:53;5.00;80.50
14727;DHT22;7454;51.256;8.176;2023-12-14T16:05:25;4.60;80.40
14727;DHT22;7454;51.256;8.176;2023-12-14T16:07:57;4.70;80.40
14727;DHT22;7454;51.256;8.176;2023-12-14T16:10:31;4.70;80.40
14727;DHT22;7454;51.256;8.176;2023-12-14T16:13:04;4.80;80.40
14727;DHT22;7454;51.256;8.176;2023-12-14T16:15:36;4.80;80.40
14727;DHT22;7454;51.256;8.176;2023-12-14T16:18:11;4.70;80.50
14727;DHT22;7454;51.256;8.176;2023-12-14T16:20:51;4.80;80.30
14727;DHT22;7454;51.256;8.176;2023-12-14T16:23:23;4.70;80.30
14727;DHT22;7454;51.256;8.176;2023-12-14T16:25:55;4.70;80.50
14727;DHT22;7454;51.256;8.176;2023-12-14T16:28:29;4.90;80.60
14727;DHT22;7454;51.256;8.176;2023-12-14T16:31:04;4.70;80.40
14727;DHT22;7454;51.256;8.176;2023-12-14T16:33:37;4.70;80.40
14727;DHT22;7454;51.256;8.176;2023-12-14T16:36:13;4.60;80.60
14727;DHT22;7454;51.256;8.176;2023-12-14T16:38:53;4.70;80.60
14727;DHT22;7454;51.256;8.176;2023-12-14T16:41:25;4.70;80.50